createdAt,value
2023-04-14T00:00:06.848Z,13.65
2023-04-14T00:02:40.505Z,13.59
2023-04-14T00:05:09.695Z,13.52
2023-04-14T00:07:37.674Z,13.45
2023-04-14T00:10:07.870Z,13.43
2023-04-14T00:12:38.540Z,13.38
2023-04-14T00:15:07.848Z,13.30
2023-04-14T00:17:38.428Z,13.23
2023-04-14T00:20:08.344Z,13.17
2023-04-14T00:22:36.528Z,13.22
2023-04-14T00:25:06.573Z,13.31
2023-04-14T00:27:34.615Z,13.37
2023-04-14T00:30:03.544Z,13.39
2023-04-14T00:32:33.762Z,13.40
2023-04-14T00:35:03.714Z,13.43
2023-04-14T00:37:31.792Z,13.44
2023-04-14T00:40:01.408Z,13.41
2023-04-14T00:42:31.950Z,13.37
2023-04-14T00:45:00.675Z,13.36
2023-04-14T00:47:28.977Z,13.41
2023-04-14T00:49:57.288Z,13.49
2023-04-14T00:52:25.541Z,13.60
2023-04-14T00:54:53.549Z,13.71
2023-04-14T00:57:21.622Z,13.78
2023-04-14T00:59:50.944Z,13.83
2023-04-14T01:02:19.011Z,13.87
2023-04-14T01:04:54.382Z,13.90
2023-04-14T01:07:23.275Z,13.91
2023-04-14T01:09:51.276Z,13.88
2023-04-14T01:12:27.911Z,13.88
2023-04-14T01:15:06.381Z,13.88
2023-04-14T01:17:38.725Z,13.88
2023-04-14T01:20:10.864Z,13.85
2023-04-14T01:22:40.522Z,13.83
2023-04-14T01:25:19.207Z,13.74
2023-04-14T01:27:54.282Z,13.75
2023-04-14T01:30:44.676Z,13.77
2023-04-14T01:33:18.398Z,13.67
2023-04-14T01:35:47.112Z,13.63
2023-04-14T01:38:18.763Z,13.64
2023-04-14T01:40:51.038Z,13.65
2023-04-14T01:43:19.123Z,13.66
2023-04-14T01:45:51.471Z,13.70
2023-04-14T01:48:21.080Z,13.71
2023-04-14T01:50:49.046Z,13.72
2023-04-14T01:53:18.036Z,13.71
2023-04-14T01:55:47.414Z,13.72
2023-04-14T01:58:15.806Z,13.75
2023-04-14T02:00:43.949Z,13.75
2023-04-14T02:03:12.102Z,13.75
2023-04-14T02:05:43.395Z,13.76
2023-04-14T02:08:13.793Z,13.77
2023-04-14T02:10:45.627Z,13.80
2023-04-14T02:13:15.317Z,13.83
2023-04-14T02:15:43.429Z,13.85
2023-04-14T02:18:12.031Z,13.89
2023-04-14T02:20:44.955Z,13.89
2023-04-14T02:23:12.967Z,13.88
2023-04-14T02:25:42.847Z,13.85
2023-04-14T02:28:15.682Z,13.84
2023-04-14T02:30:43.825Z,13.84
2023-04-14T02:33:16.114Z,13.87
2023-04-14T02:35:47.759Z,13.85
2023-04-14T02:38:19.895Z,13.83
2023-04-14T02:40:47.952Z,13.81
2023-04-14T02:43:18.851Z,13.80
2023-04-14T02:45:49.023Z,13.81
2023-04-14T02:48:17.498Z,13.79
2023-04-14T02:50:50.423Z,13.77
2023-04-14T02:53:24.107Z,13.79
2023-04-14T02:56:04.653Z,13.79
2023-04-14T02:58:38.016Z,13.81
2023-04-14T03:01:06.489Z,13.81
2023-04-14T03:03:38.466Z,13.80
2023-04-14T03:06:12.189Z,13.79
2023-04-14T03:08:41.254Z,13.76
2023-04-14T03:11:09.459Z,13.74
2023-04-14T03:13:37.983Z,13.68
2023-04-14T03:16:08.354Z,13.69
2023-04-14T03:18:37.007Z,13.66
2023-04-14T03:21:05.147Z,13.65
2023-04-14T03:23:35.059Z,13.63
2023-04-14T03:26:07.039Z,13.66
2023-04-14T03:28:37.638Z,13.65
2023-04-14T03:31:06.523Z,13.65
2023-04-14T03:33:41.988Z,13.63
2023-04-14T03:36:12.983Z,13.60
2023-04-14T03:38:42.680Z,13.59
2023-04-14T03:41:10.772Z,13.60
2023-04-14T03:43:40.289Z,13.58
2023-04-14T03:46:12.182Z,13.57
2023-04-14T03:48:42.795Z,13.55
2023-04-14T03:51:14.330Z,13.56
2023-04-14T03:53:44.847Z,13.55
2023-04-14T03:56:14.401Z,13.53
2023-04-14T03:58:42.408Z,13.53
2023-04-14T04:01:10.630Z,13.52
2023-04-14T04:03:41.516Z,13.49
2023-04-14T04:06:09.637Z,13.47
2023-04-14T04:08:37.519Z,13.41
2023-04-14T04:11:07.786Z,13.37
2023-04-14T04:13:36.728Z,13.28
2023-04-14T04:16:05.253Z,13.24
2023-04-14T04:18:33.941Z,13.25
2023-04-14T04:21:02.290Z,13.24
2023-04-14T04:23:31.557Z,13.26
2023-04-14T04:25:59.580Z,13.26
2023-04-14T04:28:36.514Z,13.24
2023-04-14T04:31:32.849Z,13.25
2023-04-14T04:34:03.099Z,13.22
2023-04-14T04:36:32.925Z,13.21
2023-04-14T04:39:01.285Z,13.21
2023-04-14T04:41:37.842Z,13.23
2023-04-14T04:44:07.398Z,13.20
2023-04-14T04:47:05.476Z,13.23
2023-04-14T04:49:34.959Z,13.18
2023-04-14T04:52:04.928Z,13.17
2023-04-14T04:54:32.964Z,13.17
2023-04-14T04:57:00.953Z,13.15
2023-04-14T04:59:30.271Z,13.14
2023-04-14T05:01:58.321Z,13.13
2023-04-14T05:04:26.560Z,13.16
2023-04-14T05:06:54.592Z,13.17
2023-04-14T05:09:23.865Z,13.16
2023-04-14T05:11:53.458Z,13.14
2023-04-14T05:14:21.606Z,13.13
2023-04-14T05:16:51.173Z,13.11
2023-04-14T05:19:19.173Z,13.10
2023-04-14T05:21:48.424Z,13.07
2023-04-14T05:24:16.478Z,13.05
2023-04-14T05:26:57.591Z,13.03
2023-04-14T05:29:35.743Z,13.02
2023-04-14T05:32:04.998Z,13.02
2023-04-14T05:34:32.924Z,13.00
2023-04-14T05:37:01.209Z,12.96
2023-04-14T05:39:29.108Z,12.96
2023-04-14T05:41:57.110Z,12.95
2023-04-14T05:44:25.455Z,12.93
2023-04-14T05:46:53.561Z,12.95
2023-04-14T05:49:22.878Z,12.94
2023-04-14T05:51:50.976Z,12.95
2023-04-14T05:54:18.945Z,12.95
2023-04-14T05:56:47.149Z,12.93
2023-04-14T05:59:16.274Z,12.96
2023-04-14T06:01:44.289Z,12.96
2023-04-14T06:04:12.517Z,12.99
2023-04-14T06:06:42.392Z,12.98
2023-04-14T06:09:10.460Z,13.00
2023-04-14T06:11:41.790Z,13.01
2023-04-14T06:14:10.327Z,13.03
2023-04-14T06:16:38.325Z,13.05
2023-04-14T06:19:06.429Z,13.06
2023-04-14T06:21:34.396Z,13.07
2023-04-14T06:24:04.807Z,13.09
2023-04-14T06:26:33.111Z,13.09
2023-04-14T06:29:01.793Z,13.10
2023-04-14T06:31:29.958Z,13.09
2023-04-14T06:33:57.925Z,13.07
2023-04-14T06:36:25.926Z,13.05
2023-04-14T06:38:54.325Z,13.04
2023-04-14T06:41:23.777Z,13.00
2023-04-14T06:43:54.346Z,12.99
2023-04-14T06:46:23.530Z,12.97
2023-04-14T06:48:51.790Z,12.96
2023-04-14T06:51:19.703Z,12.98
2023-04-14T06:53:47.856Z,13.00
2023-04-14T06:56:16.031Z,12.96
2023-04-14T06:58:45.625Z,12.94
2023-04-14T07:01:16.929Z,12.94
2023-04-14T07:03:45.036Z,12.95
2023-04-14T07:06:17.048Z,12.98
2023-04-14T07:08:46.554Z,13.01
2023-04-14T07:11:15.311Z,13.04
2023-04-14T07:13:43.210Z,13.07
2023-04-14T07:16:12.980Z,13.09
2023-04-14T07:18:41.423Z,13.11
2023-04-14T07:21:11.224Z,13.13
2023-04-14T07:23:40.083Z,13.10
2023-04-14T07:26:09.225Z,13.10
2023-04-14T07:28:37.218Z,13.11
2023-04-14T07:31:08.940Z,13.11
2023-04-14T07:33:38.792Z,13.12
2023-04-14T07:36:08.100Z,13.12
2023-04-14T07:38:36.536Z,13.14
2023-04-14T07:41:05.354Z,13.15
2023-04-14T07:43:35.709Z,13.19
2023-04-14T07:46:07.617Z,13.18
2023-04-14T07:48:36.721Z,13.18
2023-04-14T07:51:06.316Z,13.19
2023-04-14T07:53:34.571Z,13.26
2023-04-14T07:56:02.568Z,13.32
2023-04-14T07:58:31.018Z,13.31
2023-04-14T08:00:59.018Z,13.36
2023-04-14T08:03:30.067Z,13.39
2023-04-14T08:05:59.874Z,13.42
2023-04-14T08:08:29.757Z,13.44
2023-04-14T08:10:58.556Z,13.49
2023-04-14T08:13:26.538Z,13.54
2023-04-14T08:15:54.779Z,13.57
2023-04-14T08:18:23.904Z,13.60
2023-04-14T08:20:52.062Z,13.65
2023-04-14T08:23:21.749Z,13.71
2023-04-14T08:25:52.648Z,13.75
2023-04-14T08:28:21.429Z,13.82
2023-04-14T08:30:51.594Z,13.82
2023-04-14T08:33:19.874Z,13.91
2023-04-14T08:35:56.219Z,13.98
2023-04-14T08:38:28.577Z,14.06
2023-04-14T08:40:58.155Z,14.11
2023-04-14T08:43:28.542Z,14.21
2023-04-14T08:45:56.874Z,14.32
2023-04-14T08:48:27.536Z,14.38
2023-04-14T08:50:59.549Z,14.43
2023-04-14T08:53:27.963Z,14.47
2023-04-14T08:55:58.583Z,14.49
2023-04-14T08:58:26.763Z,14.51
2023-04-14T09:00:54.959Z,14.47
2023-04-14T09:03:23.226Z,14.39
2023-04-14T09:05:51.328Z,14.42
2023-04-14T09:08:19.382Z,14.43
2023-04-14T09:10:47.784Z,14.49
2023-04-14T09:13:17.279Z,14.54
2023-04-14T09:15:47.574Z,14.63
2023-04-14T09:18:15.651Z,14.76
2023-04-14T09:20:44.356Z,14.84
2023-04-14T09:23:13.431Z,14.93
2023-04-14T09:25:43.080Z,15.01
2023-04-14T09:28:12.203Z,15.08
2023-04-14T09:30:45.509Z,15.20
2023-04-14T09:35:54.720Z,15.42
2023-04-14T09:38:33.051Z,15.46
2023-04-14T09:41:01.339Z,15.48
2023-04-14T09:43:30.496Z,15.51
2023-04-14T09:46:07.912Z,15.53
2023-04-14T09:48:37.469Z,15.52
2023-04-14T09:51:07.144Z,15.58
2023-04-14T09:53:36.008Z,15.68
2023-04-14T09:56:05.931Z,15.74
2023-04-14T09:58:35.426Z,15.89
2023-04-14T10:01:05.848Z,16.00
2023-04-14T10:03:36.716Z,16.18
2023-04-14T10:06:07.759Z,16.31
2023-04-14T10:08:41.050Z,16.42
2023-04-14T10:11:17.997Z,16.60
2023-04-14T10:13:46.788Z,16.79
2023-04-14T10:16:17.375Z,17.01
2023-04-14T10:18:47.574Z,17.11
2023-04-14T10:21:17.534Z,17.28
2023-04-14T10:23:47.347Z,17.52
2023-04-14T10:26:17.200Z,17.67
2023-04-14T10:28:46.228Z,17.84
2023-04-14T10:31:18.490Z,17.96
2023-04-14T10:33:46.685Z,18.11
2023-04-14T10:36:24.609Z,18.23
2023-04-14T10:39:05.531Z,18.34
2023-04-14T10:41:47.341Z,18.35
2023-04-14T10:44:38.156Z,18.35
2023-04-14T10:47:09.629Z,18.38
2023-04-14T10:49:38.931Z,18.43
2023-04-14T10:52:09.858Z,18.45
2023-04-14T10:54:53.728Z,18.49
2023-04-14T10:57:24.110Z,18.49
2023-04-14T10:59:56.041Z,18.51
2023-04-14T11:02:29.946Z,18.58
2023-04-14T11:05:04.448Z,18.63
2023-04-14T11:07:33.469Z,18.62
2023-04-14T11:10:05.337Z,18.60
2023-04-14T11:12:33.905Z,18.64
2023-04-14T11:15:06.433Z,18.65
2023-04-14T11:17:40.758Z,18.66
2023-04-14T11:20:15.501Z,18.72
2023-04-14T11:22:45.951Z,18.73
2023-04-14T11:25:16.081Z,18.71
2023-04-14T11:27:44.509Z,18.82
2023-04-14T11:30:16.010Z,18.97
2023-04-14T11:32:49.087Z,19.06
2023-04-14T11:35:19.013Z,19.17
2023-04-14T11:37:47.453Z,19.20
2023-04-14T11:40:16.689Z,19.17
2023-04-14T11:42:49.036Z,19.10
2023-04-14T11:45:19.230Z,19.15
2023-04-14T11:48:01.981Z,19.13
2023-04-14T11:50:32.577Z,19.06
2023-04-14T11:53:01.003Z,18.98
2023-04-14T11:55:28.990Z,18.92
2023-04-14T11:57:58.227Z,18.87
2023-04-14T12:00:26.620Z,18.80
2023-04-14T12:02:56.763Z,18.67
2023-04-14T12:05:31.318Z,18.59
2023-04-14T12:08:00.857Z,18.51
2023-04-14T12:10:32.661Z,18.43
2023-04-14T12:13:03.065Z,18.38
2023-04-14T12:15:32.363Z,18.33
2023-04-14T12:18:02.052Z,18.23
2023-04-14T12:20:32.016Z,18.18
2023-04-14T12:23:04.545Z,18.13
2023-04-14T12:25:35.029Z,18.19
2023-04-14T12:28:07.207Z,18.25
2023-04-14T12:30:42.348Z,18.49
2023-04-14T12:33:12.113Z,18.69
2023-04-14T12:35:44.496Z,18.81
2023-04-14T12:38:13.790Z,18.76
2023-04-14T12:40:42.633Z,18.65
2023-04-14T12:43:11.069Z,18.61
2023-04-14T12:45:43.777Z,18.55
2023-04-14T12:48:13.453Z,18.46
2023-04-14T12:50:43.628Z,18.28
2023-04-14T12:53:25.064Z,18.06
2023-04-14T12:56:07.141Z,17.92
2023-04-14T12:58:36.168Z,17.91
2023-04-14T13:01:05.199Z,17.91
2023-04-14T13:03:53.264Z,17.81
2023-04-14T13:06:23.189Z,17.68
2023-04-14T13:08:52.226Z,17.58
2023-04-14T13:11:22.415Z,17.60
2023-04-14T13:13:53.860Z,17.62
2023-04-14T13:16:22.358Z,17.67
2023-04-14T13:18:51.525Z,17.89
2023-04-14T13:21:19.596Z,18.09
2023-04-14T13:23:49.003Z,18.11
2023-04-14T13:26:22.470Z,18.19
2023-04-14T13:28:52.049Z,18.47
2023-04-14T13:31:20.617Z,18.83
2023-04-14T13:33:48.600Z,18.99
2023-04-14T13:36:18.592Z,19.32
2023-04-14T13:38:48.392Z,19.30
2023-04-14T13:41:19.467Z,19.48
2023-04-14T13:43:51.648Z,19.97
2023-04-14T13:46:20.722Z,20.28
2023-04-14T13:48:48.795Z,20.24
2023-04-14T13:51:16.949Z,19.85
2023-04-14T13:53:45.365Z,19.65
2023-04-14T13:56:14.769Z,19.38
2023-04-14T13:58:42.933Z,19.08
2023-04-14T14:01:12.187Z,18.90
2023-04-14T14:03:41.553Z,18.59
2023-04-14T14:06:09.877Z,18.37
2023-04-14T14:08:38.017Z,18.21
2023-04-14T14:11:06.814Z,18.08
2023-04-14T14:13:37.109Z,17.84
2023-04-14T14:16:06.872Z,17.74
2023-04-14T14:18:35.059Z,17.64
2023-04-14T14:21:03.024Z,17.53
2023-04-14T14:23:31.428Z,17.26
2023-04-14T14:25:59.437Z,17.02
2023-04-14T14:28:27.755Z,16.79
2023-04-14T14:30:57.378Z,16.56
2023-04-14T14:33:25.888Z,16.26
2023-04-14T14:35:54.650Z,16.12
2023-04-14T14:38:22.676Z,15.90
2023-04-14T14:40:52.167Z,15.80
2023-04-14T14:43:20.594Z,15.59
2023-04-14T14:45:48.780Z,15.42
2023-04-14T14:48:18.454Z,15.41
2023-04-14T14:50:46.526Z,15.36
2023-04-14T14:53:15.006Z,15.24
2023-04-14T14:55:43.244Z,15.16
2023-04-14T14:58:12.064Z,15.14
2023-04-14T15:00:40.110Z,15.08
2023-04-14T15:03:10.322Z,14.88
2023-04-14T15:05:40.125Z,14.96
2023-04-14T15:08:08.679Z,15.05
2023-04-14T15:10:37.162Z,15.09
2023-04-14T15:13:06.101Z,15.19
2023-04-14T15:15:35.493Z,15.35
2023-04-14T15:18:03.839Z,15.26
2023-04-14T15:20:32.045Z,15.29
2023-04-14T15:23:03.733Z,15.42
2023-04-14T15:25:31.801Z,15.59
2023-04-14T15:27:59.759Z,15.67
2023-04-14T15:30:28.573Z,15.67
2023-04-14T15:32:57.429Z,15.78
2023-04-14T15:35:26.303Z,15.81
2023-04-14T15:37:54.572Z,15.76
2023-04-14T15:40:24.207Z,15.63
2023-04-14T15:42:52.229Z,15.71
2023-04-14T15:45:21.565Z,15.73
2023-04-14T15:47:50.121Z,15.77
2023-04-14T15:50:19.130Z,15.81
2023-04-14T15:52:47.620Z,15.96
2023-04-14T15:55:17.937Z,16.27
2023-04-14T15:57:48.825Z,16.92
2023-04-14T16:00:17.687Z,17.38
2023-04-14T16:02:46.452Z,18.04
2023-04-14T16:05:15.004Z,18.53
2023-04-14T16:07:43.876Z,19.19
2023-04-14T16:10:12.295Z,19.82
2023-04-14T16:12:40.798Z,20.23
2023-04-14T16:15:11.227Z,20.68
2023-04-14T16:17:39.365Z,21.07
2023-04-14T16:20:08.211Z,20.66
2023-04-14T16:22:37.094Z,20.04
2023-04-14T16:25:05.825Z,19.31
2023-04-14T16:27:33.935Z,18.88
2023-04-14T16:30:02.032Z,18.62
2023-04-14T16:32:31.699Z,18.61
2023-04-14T16:34:59.827Z,19.15
2023-04-14T16:37:27.879Z,19.59
2023-04-14T16:39:56.012Z,20.15
2023-04-14T16:42:25.110Z,20.70
2023-04-14T16:44:53.173Z,21.23
2023-04-14T16:47:21.366Z,21.63
2023-04-14T16:49:51.739Z,21.96
2023-04-14T16:52:19.928Z,22.13
2023-04-14T16:54:47.965Z,22.30
2023-04-14T16:57:16.589Z,22.51
2023-04-14T16:59:46.962Z,22.80
2023-04-14T17:02:15.152Z,22.98
2023-04-14T17:04:45.690Z,22.96
2023-04-14T17:07:17.135Z,22.82
2023-04-14T17:09:47.150Z,22.47
2023-04-14T17:12:15.586Z,22.55
2023-04-14T17:14:45.327Z,22.31
2023-04-14T17:17:13.867Z,22.43
2023-04-14T17:19:41.892Z,22.49
2023-04-14T17:22:11.430Z,22.48
2023-04-14T17:24:42.863Z,22.32
2023-04-14T17:27:11.516Z,22.05
2023-04-14T17:29:41.106Z,21.90
2023-04-14T17:32:11.714Z,21.72
2023-04-14T17:34:42.471Z,21.67
2023-04-14T17:37:10.457Z,21.72
2023-04-14T17:39:38.949Z,21.64
2023-04-14T17:42:08.814Z,21.47
2023-04-14T17:44:38.230Z,21.14
2023-04-14T17:47:15.171Z,20.99
2023-04-14T17:49:43.860Z,20.64
2023-04-14T17:52:19.720Z,20.38
2023-04-14T17:54:52.732Z,20.02
2023-04-14T17:57:22.982Z,19.77
2023-04-14T17:59:53.396Z,19.51
2023-04-14T18:02:22.476Z,19.17
2023-04-14T18:04:50.578Z,18.89
2023-04-14T18:07:18.708Z,18.63
2023-04-14T18:09:47.646Z,18.48
2023-04-14T18:12:15.724Z,18.33
2023-04-14T18:14:45.176Z,18.25
2023-04-14T18:17:13.692Z,18.14
2023-04-14T18:19:41.619Z,17.99
2023-04-14T18:22:11.275Z,17.83
2023-04-14T18:29:47.233Z,16.77
2023-04-14T18:32:15.511Z,16.45
2023-04-14T18:34:44.034Z,16.17
2023-04-14T18:37:12.258Z,15.90
2023-04-14T18:39:40.412Z,15.74
2023-04-14T18:42:08.307Z,15.61
2023-04-14T18:44:37.687Z,15.48
2023-04-14T18:47:07.096Z,15.34
2023-04-14T18:49:37.440Z,15.27
2023-04-14T18:52:06.168Z,15.16
2023-04-14T18:54:34.701Z,15.11
2023-04-14T18:57:04.143Z,15.03
2023-04-14T18:59:33.996Z,14.96
2023-04-14T19:02:04.497Z,14.88
2023-04-14T19:04:35.874Z,14.81
2023-04-14T19:07:06.628Z,14.77
2023-04-14T19:09:36.181Z,14.72
2023-04-14T19:12:06.833Z,14.63
2023-04-14T19:14:38.355Z,14.56
2023-04-14T19:17:06.392Z,14.49
2023-04-14T19:19:36.493Z,14.37
2023-04-14T19:22:04.670Z,14.34
2023-04-14T19:24:32.650Z,14.26
2023-04-14T19:27:00.907Z,14.19
2023-04-14T19:29:29.066Z,14.16
2023-04-14T19:31:58.524Z,14.13
2023-04-14T19:34:27.165Z,14.09
2023-04-14T19:36:57.488Z,14.03
2023-04-14T19:39:25.667Z,14.02
2023-04-14T19:41:53.524Z,13.94
2023-04-14T19:44:23.729Z,13.93
2023-04-14T19:46:51.725Z,13.90
2023-04-14T19:49:28.612Z,13.89
2023-04-14T19:51:58.162Z,13.87
2023-04-14T19:54:26.531Z,13.86
2023-04-14T19:56:56.493Z,13.82
2023-04-14T19:59:54.588Z,13.79
2023-04-14T20:02:23.393Z,13.66
2023-04-14T20:04:57.110Z,13.66
2023-04-14T20:07:26.490Z,13.68
2023-04-14T20:09:55.980Z,13.57
2023-04-14T20:12:24.373Z,13.67
2023-04-14T20:14:52.672Z,13.62
2023-04-14T20:17:22.088Z,13.60
2023-04-14T20:19:51.473Z,13.59
2023-04-14T20:22:19.781Z,13.59
2023-04-14T20:24:55.180Z,13.57
2023-04-14T20:27:25.050Z,13.58
2023-04-14T20:29:54.909Z,13.59
2023-04-14T20:32:23.856Z,13.53
2023-04-14T20:34:57.263Z,13.55
2023-04-14T20:37:25.437Z,13.54
2023-04-14T20:39:55.449Z,13.51
2023-04-14T20:42:23.675Z,13.49
2023-04-14T20:44:52.256Z,13.47
2023-04-14T20:47:22.352Z,13.46
2023-04-14T20:49:50.722Z,13.42
2023-04-14T20:52:23.441Z,13.40
2023-04-14T20:54:51.852Z,13.38
2023-04-14T20:57:21.268Z,13.40
2023-04-14T20:59:49.835Z,13.39
2023-04-14T21:02:18.413Z,13.34
2023-04-14T21:04:47.820Z,13.37
2023-04-14T21:07:16.462Z,13.36
2023-04-14T21:09:44.691Z,13.38
2023-04-14T21:12:15.738Z,13.35
2023-04-14T21:15:31.079Z,13.34
2023-04-14T21:17:37.482Z,13.34
2023-04-14T21:20:09.090Z,13.34
2023-04-14T21:22:38.111Z,13.33
2023-04-14T21:25:07.359Z,13.33
2023-04-14T21:27:38.094Z,13.33
2023-04-14T21:30:13.830Z,13.34
2023-04-14T21:32:42.475Z,13.33
2023-04-14T21:35:12.235Z,13.33
2023-04-14T21:37:41.458Z,13.31
2023-04-14T21:40:13.281Z,13.29
2023-04-14T21:42:42.541Z,13.30
2023-04-14T21:45:12.299Z,13.28
2023-04-14T21:47:41.020Z,13.26
2023-04-14T21:50:12.441Z,13.28
2023-04-14T21:52:41.484Z,13.28
2023-04-14T21:55:10.416Z,13.26
2023-04-14T21:57:44.190Z,13.26
2023-04-14T22:00:21.278Z,13.24
2023-04-14T22:02:52.407Z,13.22
2023-04-14T22:05:21.186Z,13.21
2023-04-14T22:07:49.134Z,13.22
2023-04-14T22:10:18.715Z,13.21
2023-04-14T22:12:47.175Z,13.18
2023-04-14T22:15:16.875Z,13.15
2023-04-14T22:17:46.473Z,13.15
2023-04-14T22:20:20.272Z,13.16
2023-04-14T22:22:49.154Z,13.16
2023-04-14T22:25:17.645Z,13.11
2023-04-14T22:27:47.350Z,13.10
2023-04-14T22:30:15.928Z,13.10
2023-04-14T22:32:47.446Z,13.06
2023-04-14T22:35:16.520Z,13.01
2023-04-14T22:37:45.454Z,13.00
2023-04-14T22:40:13.871Z,12.97
2023-04-14T22:42:42.230Z,12.96
2023-04-14T22:45:12.565Z,12.93
2023-04-14T22:47:40.711Z,12.94
2023-04-14T22:50:13.040Z,12.92
2023-04-14T22:52:43.290Z,12.94
2023-04-14T22:55:11.795Z,12.91
2023-04-14T22:57:41.385Z,12.89
2023-04-14T23:00:12.288Z,12.87
2023-04-14T23:02:42.318Z,12.85
2023-04-14T23:05:14.495Z,12.85
2023-04-14T23:07:42.807Z,12.79
2023-04-14T23:10:11.934Z,12.83
2023-04-14T23:12:41.347Z,12.83
2023-04-14T23:15:10.398Z,12.84
2023-04-14T23:17:38.437Z,12.83
2023-04-14T23:20:10.346Z,12.83
2023-04-14T23:22:40.656Z,12.82
2023-04-14T23:25:09.394Z,12.82
2023-04-14T23:27:38.241Z,12.84
2023-04-14T23:30:10.247Z,12.87
2023-04-14T23:32:39.916Z,12.88
2023-04-14T23:35:09.347Z,12.88
2023-04-14T23:37:39.240Z,12.85
2023-04-14T23:40:09.228Z,12.80
2023-04-14T23:42:37.513Z,12.76
2023-04-14T23:45:09.235Z,12.70
2023-04-14T23:47:37.669Z,12.64
2023-04-14T23:50:08.807Z,12.64
2023-04-14T23:52:37.247Z,12.60
2023-04-14T23:55:08.114Z,12.58
2023-04-14T23:57:36.064Z,12.57
